createdAt,value
2018-02-10T00:01:09.540Z,0.40
2018-02-10T00:03:35.976Z,0.30
2018-02-10T00:06:02.392Z,0.30
2018-02-10T00:08:28.914Z,0.20
2018-02-10T00:10:55.396Z,0.10
2018-02-10T00:13:21.824Z,0.00
2018-02-10T00:15:48.340Z,0.00
2018-02-10T00:18:14.870Z,0.10
2018-02-10T00:20:41.287Z,0.10
2018-02-10T00:23:07.692Z,0.10
2018-02-10T00:25:34.127Z,0.20
2018-02-10T00:28:00.500Z,0.30
2018-02-10T00:30:28.203Z,0.60
2018-02-10T00:32:54.800Z,0.40
2018-02-10T00:35:21.321Z,0.20
2018-02-10T00:37:47.862Z,0.20
2018-02-10T00:40:14.595Z,0.10
2018-02-10T00:42:41.006Z,0.20
2018-02-10T00:45:07.428Z,0.40
2018-02-10T00:47:35.109Z,0.80
2018-02-10T00:50:01.625Z,0.70
2018-02-10T00:52:28.255Z,0.40
2018-02-10T00:54:54.838Z,0.30
2018-02-10T00:57:21.213Z,0.10
2018-02-10T00:59:47.696Z,0.00
2018-02-10T01:02:14.057Z,0.00
2018-02-10T01:04:40.556Z,-0.10
2018-02-10T01:07:07.079Z,0.00
2018-02-10T01:09:33.465Z,0.10
2018-02-10T01:12:00.468Z,0.10
2018-02-10T01:14:26.984Z,0.10
2018-02-10T01:16:53.491Z,0.20
2018-02-10T01:19:19.877Z,0.20
2018-02-10T01:21:46.368Z,0.20
2018-02-10T01:24:12.729Z,0.20
2018-02-10T01:26:39.129Z,0.30
2018-02-10T01:29:05.723Z,0.40
2018-02-10T01:31:32.247Z,0.30
2018-02-10T01:33:58.723Z,0.30
2018-02-10T01:36:25.595Z,0.30
2018-02-10T01:38:53.010Z,0.60
2018-02-10T01:41:19.419Z,0.60
2018-02-10T01:43:45.848Z,0.50
2018-02-10T01:46:12.245Z,0.70
2018-02-10T01:48:38.868Z,0.70
2018-02-10T01:51:05.411Z,0.60
2018-02-10T01:53:32.587Z,0.50
2018-02-10T01:55:58.958Z,0.30
2018-02-10T01:58:25.367Z,0.30
2018-02-10T02:00:51.904Z,0.20
2018-02-10T02:03:18.319Z,0.20
2018-02-10T02:05:44.759Z,0.10
2018-02-10T02:08:11.178Z,0.20
2018-02-10T02:10:37.972Z,0.20
2018-02-10T02:13:04.410Z,0.20
2018-02-10T02:15:30.840Z,0.30
2018-02-10T02:17:57.292Z,0.40
2018-02-10T02:20:23.846Z,0.40
2018-02-10T02:22:50.320Z,0.30
2018-02-10T02:25:16.780Z,0.40
2018-02-10T02:27:43.307Z,0.30
2018-02-10T02:30:09.858Z,0.40
2018-02-10T02:32:36.247Z,0.50
2018-02-10T02:35:02.728Z,0.60
2018-02-10T02:37:30.100Z,0.80
2018-02-10T02:39:56.630Z,0.90
2018-02-10T02:42:23.054Z,0.90
2018-02-10T02:44:49.440Z,1.00
2018-02-10T02:47:15.778Z,1.00
2018-02-10T02:49:42.209Z,1.00
2018-02-10T02:52:08.660Z,1.00
2018-02-10T02:54:35.037Z,1.10
2018-02-10T02:57:01.443Z,1.10
2018-02-10T02:59:27.995Z,0.90
2018-02-10T03:01:54.509Z,0.80
2018-02-10T03:04:20.958Z,0.80
2018-02-10T03:06:47.356Z,0.90
2018-02-10T03:09:13.722Z,1.00
2018-02-10T03:11:40.359Z,1.20
2018-02-10T03:14:06.748Z,1.10
2018-02-10T03:16:33.194Z,1.00
2018-02-10T03:18:59.633Z,1.00
2018-02-10T03:21:26.096Z,1.00
2018-02-10T03:23:52.511Z,1.10
2018-02-10T03:26:19.317Z,1.20
2018-02-10T03:28:45.722Z,1.30
2018-02-10T03:31:12.194Z,1.40
2018-02-10T03:33:38.628Z,1.00
2018-02-10T03:36:05.053Z,0.80
2018-02-10T03:38:31.421Z,0.90
2018-02-10T03:40:57.941Z,1.00
2018-02-10T03:43:24.347Z,0.80
2018-02-10T03:45:50.801Z,0.70
2018-02-10T03:48:17.197Z,0.80
2018-02-10T03:50:43.660Z,0.60
2018-02-10T03:53:10.010Z,0.60
2018-02-10T03:55:36.454Z,0.60
2018-02-10T03:58:02.827Z,0.80
2018-02-10T04:00:29.274Z,0.80
2018-02-10T04:02:55.699Z,0.80
2018-02-10T04:05:22.076Z,0.80
2018-02-10T04:07:48.437Z,0.80
2018-02-10T04:10:15.058Z,1.10
2018-02-10T04:12:41.399Z,0.90
2018-02-10T04:15:08.684Z,0.80
2018-02-10T04:17:35.084Z,0.80
2018-02-10T04:20:01.502Z,0.80
2018-02-10T04:22:28.911Z,1.00
2018-02-10T04:24:55.398Z,1.10
2018-02-10T04:27:21.760Z,1.00
2018-02-10T04:29:48.181Z,1.20
2018-02-10T04:32:14.716Z,1.20
2018-02-10T04:34:41.057Z,1.50
2018-02-10T04:37:07.410Z,1.20
2018-02-10T04:39:33.852Z,1.00
2018-02-10T04:42:00.318Z,1.00
2018-02-10T04:44:26.696Z,0.90
2018-02-10T04:46:53.125Z,0.90
2018-02-10T04:49:20.185Z,1.30
2018-02-10T04:51:47.076Z,1.00
2018-02-10T04:54:14.620Z,1.10
2018-02-10T04:56:41.489Z,0.90
2018-02-10T04:59:08.540Z,0.80
2018-02-10T05:01:35.250Z,0.80
2018-02-10T05:04:01.772Z,0.80
2018-02-10T05:06:28.207Z,0.90
2018-02-10T05:08:54.668Z,1.10
2018-02-10T05:11:21.181Z,1.20
2018-02-10T05:13:47.680Z,1.20
2018-02-10T05:16:14.125Z,1.20
2018-02-10T05:18:40.703Z,1.10
2018-02-10T05:21:07.579Z,1.10
2018-02-10T05:23:34.160Z,1.20
2018-02-10T05:26:00.716Z,1.30
2018-02-10T05:28:27.165Z,1.40
2018-02-10T05:30:55.767Z,1.30
2018-02-10T05:33:22.128Z,1.30
2018-02-10T05:35:48.484Z,1.20
2018-02-10T05:38:14.891Z,1.60
2018-02-10T05:40:41.510Z,1.50
2018-02-10T05:43:08.089Z,1.40
2018-02-10T05:45:34.523Z,1.30
2018-02-10T05:48:00.924Z,1.30
2018-02-10T05:50:27.381Z,1.30
2018-02-10T05:52:53.824Z,1.70
2018-02-10T05:55:20.221Z,1.70
2018-02-10T05:57:46.601Z,1.40
2018-02-10T06:00:13.069Z,1.40
2018-02-10T06:02:40.407Z,1.30
2018-02-10T06:05:06.867Z,1.30
2018-02-10T06:07:33.310Z,1.80
2018-02-10T06:09:59.825Z,1.60
2018-02-10T06:12:26.248Z,1.40
2018-02-10T06:14:52.732Z,1.50
2018-02-10T06:17:19.497Z,1.70
2018-02-10T06:19:46.122Z,1.90
2018-02-10T06:22:12.826Z,1.60
2018-02-10T06:24:39.879Z,1.60
2018-02-10T06:27:06.748Z,1.70
2018-02-10T06:29:33.453Z,1.70
2018-02-10T06:32:00.292Z,1.80
2018-02-10T06:34:27.304Z,1.80
2018-02-10T06:36:54.106Z,2.10
2018-02-10T06:39:20.583Z,2.10
2018-02-10T06:41:47.172Z,2.20
2018-02-10T06:44:13.788Z,2.10
2018-02-10T06:46:41.578Z,2.10
2018-02-10T06:49:08.129Z,2.10
2018-02-10T06:51:35.000Z,2.20
2018-02-10T06:54:01.734Z,2.20
2018-02-10T06:56:28.149Z,2.20
2018-02-10T06:58:55.158Z,2.20
2018-02-10T07:01:21.802Z,2.20
2018-02-10T07:03:48.226Z,2.50
2018-02-10T07:06:14.743Z,2.50
2018-02-10T07:08:41.108Z,2.50
2018-02-10T07:11:07.874Z,2.50
2018-02-10T07:13:34.333Z,2.50
2018-02-10T07:16:00.796Z,2.50
2018-02-10T07:18:27.208Z,2.50
2018-02-10T07:20:53.763Z,2.60
2018-02-10T07:23:20.235Z,2.70
2018-02-10T07:25:46.724Z,2.80
2018-02-10T07:28:13.198Z,2.90
2018-02-10T07:30:39.803Z,2.90
2018-02-10T07:33:06.321Z,2.90
2018-02-10T07:35:32.814Z,3.00
2018-02-10T07:37:59.398Z,3.10
2018-02-10T07:40:26.043Z,3.00
2018-02-10T07:42:52.774Z,3.00
2018-02-10T07:45:19.362Z,3.10
2018-02-10T07:47:45.928Z,3.00
2018-02-10T07:50:12.626Z,3.20
2018-02-10T07:52:39.134Z,3.20
2018-02-10T07:55:05.695Z,3.20
2018-02-10T07:57:32.194Z,3.40
2018-02-10T07:59:58.646Z,3.60
2018-02-10T08:02:25.342Z,3.70
2018-02-10T08:04:51.799Z,3.90
2018-02-10T08:07:18.256Z,3.70
2018-02-10T08:09:44.725Z,3.90
2018-02-10T08:12:11.312Z,4.00
2018-02-10T08:14:38.065Z,4.00
2018-02-10T08:17:04.599Z,4.10
2018-02-10T08:19:31.068Z,4.10
2018-02-10T08:21:57.544Z,4.20
2018-02-10T08:24:24.045Z,4.20
2018-02-10T08:26:50.626Z,4.50
2018-02-10T08:29:17.073Z,4.20
2018-02-10T08:31:43.594Z,4.20
2018-02-10T08:34:10.109Z,4.70
2018-02-10T08:36:36.783Z,4.80
2018-02-10T08:39:03.537Z,4.60
2018-02-10T08:41:30.047Z,4.50
2018-02-10T08:43:56.620Z,4.30
2018-02-10T08:46:23.098Z,4.20
2018-02-10T08:48:49.614Z,4.60
2018-02-10T08:51:16.168Z,4.90
2018-02-10T08:53:42.627Z,4.90
2018-02-10T08:56:09.197Z,4.80
2018-02-10T08:58:35.666Z,5.10
2018-02-10T09:01:02.365Z,5.00
2018-02-10T09:03:29.050Z,5.20
2018-02-10T09:05:55.987Z,5.30
2018-02-10T09:08:22.521Z,5.60
2018-02-10T09:10:49.239Z,5.80
2018-02-10T09:13:15.850Z,5.90
2018-02-10T09:15:42.405Z,5.90
2018-02-10T09:18:08.905Z,5.70
2018-02-10T09:20:35.370Z,5.80
2018-02-10T09:23:01.861Z,5.80
2018-02-10T09:25:28.345Z,5.70
2018-02-10T09:27:54.809Z,5.90
2018-02-10T09:30:21.246Z,6.20
2018-02-10T09:32:47.903Z,6.30
2018-02-10T09:35:14.554Z,6.50
2018-02-10T09:37:41.070Z,6.50
2018-02-10T09:40:07.458Z,6.00
2018-02-10T09:42:33.986Z,6.30
2018-02-10T09:45:00.412Z,6.40
2018-02-10T09:47:27.310Z,6.40
2018-02-10T09:49:53.852Z,6.70
2018-02-10T09:52:20.328Z,6.80
2018-02-10T09:54:46.748Z,7.10
2018-02-10T09:57:13.182Z,6.80
2018-02-10T09:59:39.658Z,7.00
2018-02-10T10:02:06.416Z,6.90
2018-02-10T10:04:33.661Z,6.70
2018-02-10T10:07:01.017Z,6.70
2018-02-10T10:09:27.792Z,6.40
2018-02-10T10:11:54.428Z,6.40
2018-02-10T10:14:20.831Z,6.30
2018-02-10T10:16:48.207Z,6.20
2018-02-10T10:19:14.785Z,6.30
2018-02-10T10:21:41.329Z,6.10
2018-02-10T10:24:07.851Z,6.20
2018-02-10T10:26:34.364Z,6.40
2018-02-10T10:29:00.810Z,6.30
2018-02-10T10:31:27.321Z,6.30
2018-02-10T10:33:53.814Z,6.40
2018-02-10T10:36:20.240Z,6.40
2018-02-10T10:38:46.734Z,6.20
2018-02-10T10:41:13.286Z,6.00
2018-02-10T10:43:39.762Z,6.10
2018-02-10T10:46:06.293Z,6.10
2018-02-10T10:48:32.783Z,6.20
2018-02-10T10:50:59.393Z,6.10
2018-02-10T10:53:26.246Z,6.10
2018-02-10T10:55:52.775Z,6.00
2018-02-10T10:58:19.367Z,6.00
2018-02-10T11:00:45.995Z,6.10
2018-02-10T11:03:12.478Z,6.10
2018-02-10T11:05:39.084Z,6.00
2018-02-10T11:08:06.257Z,6.00
2018-02-10T11:10:32.868Z,6.00
2018-02-10T11:12:59.516Z,6.10
2018-02-10T11:15:26.125Z,6.00
2018-02-10T11:17:52.895Z,6.00
2018-02-10T11:20:19.504Z,6.00
2018-02-10T11:22:46.180Z,5.90
2018-02-10T11:25:12.720Z,5.90
2018-02-10T11:27:39.236Z,6.00
2018-02-10T11:30:06.110Z,6.00
2018-02-10T11:32:32.795Z,5.80
2018-02-10T11:34:59.514Z,5.90
2018-02-10T11:37:26.234Z,5.80
2018-02-10T11:39:52.643Z,5.80
2018-02-10T11:42:19.461Z,5.70
2018-02-10T11:44:46.577Z,5.80
2018-02-10T11:47:13.189Z,5.70
2018-02-10T11:49:39.554Z,5.60
2018-02-10T11:52:06.046Z,5.70
2018-02-10T11:54:32.573Z,5.70
2018-02-10T11:56:59.151Z,5.70
2018-02-10T11:59:25.982Z,5.80
2018-02-10T12:01:52.908Z,5.70
2018-02-10T12:04:19.674Z,5.70
2018-02-10T12:06:46.256Z,5.80
2018-02-10T12:09:12.820Z,5.70
2018-02-10T12:11:39.287Z,5.60
2018-02-10T12:14:05.788Z,5.60
2018-02-10T12:16:32.517Z,5.70
2018-02-10T12:18:59.076Z,5.60
2018-02-10T12:21:25.597Z,5.60
2018-02-10T12:23:52.280Z,5.70
2018-02-10T12:26:18.887Z,5.70
2018-02-10T12:28:45.480Z,5.60
2018-02-10T12:31:11.980Z,5.60
2018-02-10T12:33:38.537Z,5.40
2018-02-10T12:36:05.095Z,5.40
2018-02-10T12:38:31.892Z,5.40
2018-02-10T12:40:58.403Z,5.40
2018-02-10T12:43:25.063Z,5.40
2018-02-10T12:45:51.738Z,5.40
2018-02-10T12:48:24.503Z,5.30
2018-02-10T12:50:51.047Z,5.30
2018-02-10T12:53:17.469Z,5.40
2018-02-10T12:55:44.182Z,5.40
2018-02-10T12:58:11.235Z,5.50
2018-02-10T13:00:37.832Z,5.50
2018-02-10T13:03:04.508Z,5.40
2018-02-10T13:05:31.185Z,5.40
2018-02-10T13:07:57.782Z,5.40
2018-02-10T13:10:24.556Z,5.30
2018-02-10T13:12:51.095Z,5.30
2018-02-10T13:15:17.492Z,5.20
2018-02-10T13:17:44.008Z,5.30
2018-02-10T13:20:10.701Z,5.20
2018-02-10T13:22:37.220Z,5.30
2018-02-10T13:25:03.783Z,5.20
2018-02-10T13:27:31.199Z,5.20
2018-02-10T13:29:57.675Z,5.20
2018-02-10T13:32:24.265Z,5.20
2018-02-10T13:34:50.923Z,5.20
2018-02-10T13:37:17.572Z,5.30
2018-02-10T13:39:44.189Z,5.30
2018-02-10T13:42:12.522Z,5.30
2018-02-10T13:44:38.994Z,5.40
2018-02-10T13:47:05.475Z,5.40
2018-02-10T13:49:32.959Z,5.40
2018-02-10T13:51:59.587Z,5.50
2018-02-10T13:54:26.305Z,5.40
2018-02-10T13:56:52.798Z,5.40
2018-02-10T13:59:19.916Z,5.40
2018-02-10T14:01:46.585Z,5.30
2018-02-10T14:04:13.253Z,5.40
2018-02-10T14:06:39.815Z,5.30
2018-02-10T14:09:06.375Z,5.30
2018-02-10T14:11:33.356Z,5.30
2018-02-10T14:14:01.754Z,5.30
2018-02-10T14:16:32.268Z,5.30
2018-02-10T14:19:00.690Z,5.20
2018-02-10T14:21:29.347Z,5.20
2018-02-10T14:23:57.146Z,5.20
2018-02-10T14:26:25.733Z,5.30
2018-02-10T14:28:53.042Z,5.30
2018-02-10T14:31:21.166Z,5.30
2018-02-10T14:33:49.433Z,5.20
2018-02-10T14:36:16.428Z,5.10
2018-02-10T14:38:43.271Z,5.10
2018-02-10T14:41:10.148Z,5.00
2018-02-10T14:43:37.516Z,5.20
2018-02-10T14:46:05.396Z,5.00
2018-02-10T14:48:32.545Z,4.90
2018-02-10T14:50:59.755Z,4.90
2018-02-10T14:53:26.962Z,4.90
2018-02-10T14:55:53.878Z,4.80
2018-02-10T14:58:20.950Z,5.00
2018-02-10T15:00:47.957Z,4.80
2018-02-10T15:03:14.689Z,4.70
2018-02-10T15:05:41.409Z,4.70
2018-02-10T15:08:09.070Z,4.70
2018-02-10T15:10:37.701Z,4.60
2018-02-10T15:13:07.123Z,4.60
2018-02-10T15:15:34.181Z,4.60
2018-02-10T15:18:01.548Z,4.50
2018-02-10T15:20:29.505Z,4.50
2018-02-10T15:22:56.422Z,4.50
2018-02-10T15:25:23.207Z,4.60
2018-02-10T15:27:49.784Z,4.30
2018-02-10T15:30:28.559Z,4.20
2018-02-10T15:33:07.440Z,4.20
2018-02-10T15:35:33.992Z,4.00
2018-02-10T15:38:00.859Z,4.00
2018-02-10T15:40:27.300Z,4.00
2018-02-10T15:42:54.166Z,4.10
2018-02-10T15:45:20.747Z,4.10
2018-02-10T15:47:47.207Z,4.10
2018-02-10T15:50:13.739Z,4.00
2018-02-10T15:52:41.318Z,3.80
2018-02-10T15:55:08.770Z,3.80
2018-02-10T15:57:35.803Z,4.00
2018-02-10T16:00:02.465Z,3.90
2018-02-10T16:02:29.502Z,3.70
2018-02-10T16:04:56.203Z,3.80
2018-02-10T16:07:23.124Z,3.70
2018-02-10T16:09:49.765Z,3.60
2018-02-10T16:12:17.451Z,3.60
2018-02-10T16:14:44.253Z,3.60
2018-02-10T16:17:10.828Z,3.70
2018-02-10T16:19:37.375Z,3.60
2018-02-10T16:22:04.459Z,3.60
2018-02-10T16:24:31.153Z,3.70
2018-02-10T16:26:58.037Z,3.70
2018-02-10T16:29:25.021Z,3.60
2018-02-10T16:31:52.607Z,3.60
2018-02-10T16:34:19.428Z,3.60
2018-02-10T16:36:45.941Z,3.50
2018-02-10T16:39:12.455Z,3.60
2018-02-10T16:41:39.126Z,3.60
2018-02-10T16:44:05.767Z,3.60
2018-02-10T16:46:32.515Z,3.70
2018-02-10T16:48:59.204Z,3.50
2018-02-10T16:51:25.954Z,3.50
2018-02-10T16:53:52.588Z,3.50
2018-02-10T16:56:19.222Z,3.50
2018-02-10T16:58:45.888Z,3.40
2018-02-10T17:01:12.739Z,3.30
2018-02-10T17:03:39.930Z,3.30
2018-02-10T17:06:06.841Z,3.40
2018-02-10T17:08:33.750Z,3.30
2018-02-10T17:11:00.803Z,3.30
2018-02-10T17:13:27.673Z,3.30
2018-02-10T17:15:55.353Z,3.20
2018-02-10T17:18:23.167Z,3.20
2018-02-10T17:20:50.496Z,3.30
2018-02-10T17:23:17.756Z,3.20
2018-02-10T17:25:46.498Z,3.20
2018-02-10T17:28:13.746Z,3.40
2018-02-10T17:30:40.717Z,3.30
2018-02-10T17:33:08.035Z,3.40
2018-02-10T17:35:35.201Z,3.30
2018-02-10T17:38:01.933Z,3.30
2018-02-10T17:40:28.701Z,3.30
2018-02-10T17:42:56.517Z,3.40
2018-02-10T17:45:23.389Z,3.20
2018-02-10T17:47:50.357Z,3.20
2018-02-10T17:50:16.928Z,3.40
2018-02-10T17:52:43.669Z,3.40
2018-02-10T17:55:10.350Z,3.30
2018-02-10T17:57:36.942Z,3.40
2018-02-10T18:00:03.962Z,3.20
2018-02-10T18:02:31.789Z,3.10
2018-02-10T18:04:58.675Z,3.10
2018-02-10T18:07:25.568Z,3.20
2018-02-10T18:09:52.174Z,3.10
2018-02-10T18:12:19.327Z,3.10
2018-02-10T18:14:46.090Z,3.10
2018-02-10T18:17:13.210Z,3.70
2018-02-10T18:19:39.915Z,4.70
2018-02-10T18:22:06.738Z,4.40
2018-02-10T18:24:33.688Z,4.20
2018-02-10T18:27:01.742Z,3.70
2018-02-10T18:29:28.971Z,3.70
2018-02-10T18:31:55.655Z,3.40
2018-02-10T18:34:22.429Z,3.20
2018-02-10T18:36:49.062Z,3.10
2018-02-10T18:39:15.659Z,3.10
2018-02-10T18:41:42.907Z,3.00
2018-02-10T18:44:09.449Z,3.20
2018-02-10T18:46:36.157Z,3.20
2018-02-10T18:49:03.066Z,3.30
2018-02-10T18:51:29.665Z,3.60
2018-02-10T18:53:56.672Z,3.60
2018-02-10T18:56:23.460Z,3.70
2018-02-10T18:58:50.356Z,3.70
2018-02-10T19:01:17.551Z,3.50
2018-02-10T19:03:44.178Z,3.40
2018-02-10T19:06:11.437Z,3.50
2018-02-10T19:08:38.325Z,3.50
2018-02-10T19:11:04.863Z,3.30
2018-02-10T19:13:31.689Z,4.00
2018-02-10T19:15:58.681Z,4.20
2018-02-10T19:18:25.497Z,4.50
2018-02-10T19:20:51.989Z,4.30
2018-02-10T19:23:19.324Z,4.20
2018-02-10T19:25:45.881Z,4.20
2018-02-10T19:28:12.477Z,4.30
2018-02-10T19:30:39.135Z,3.90
2018-02-10T19:33:06.336Z,4.10
2018-02-10T19:35:32.910Z,4.20
2018-02-10T19:37:59.642Z,4.00
2018-02-10T19:40:26.648Z,4.10
2018-02-10T19:42:53.358Z,4.00
2018-02-10T19:45:19.976Z,4.10
2018-02-10T19:47:46.651Z,4.10
2018-02-10T19:50:14.202Z,4.20
2018-02-10T19:52:40.800Z,4.10
2018-02-10T19:55:07.587Z,4.10
2018-02-10T19:57:34.800Z,4.00
2018-02-10T20:00:01.604Z,4.10
2018-02-10T20:02:28.274Z,4.10
2018-02-10T20:04:54.780Z,4.00
2018-02-10T20:07:21.758Z,4.00
2018-02-10T20:09:48.474Z,4.00
2018-02-10T20:12:14.971Z,4.00
2018-02-10T20:14:41.775Z,4.00
2018-02-10T20:17:08.383Z,3.90
2018-02-10T20:19:34.876Z,3.90
2018-02-10T20:22:02.060Z,4.00
2018-02-10T20:24:29.098Z,4.10
2018-02-10T20:26:55.926Z,4.20
2018-02-10T20:29:22.599Z,4.10
2018-02-10T20:31:49.292Z,4.30
2018-02-10T20:34:16.271Z,4.20
2018-02-10T20:36:43.537Z,4.20
2018-02-10T20:39:10.289Z,4.20
2018-02-10T20:41:38.270Z,4.40
2018-02-10T20:44:04.978Z,4.50
2018-02-10T20:46:31.496Z,4.50
2018-02-10T20:48:58.015Z,4.50
2018-02-10T20:51:24.839Z,4.40
2018-02-10T20:53:51.688Z,3.90
2018-02-10T20:56:18.361Z,3.50
2018-02-10T20:58:44.988Z,3.10
2018-02-10T21:01:11.554Z,2.90
2018-02-10T21:03:38.325Z,2.60
2018-02-10T21:06:05.045Z,2.50
2018-02-10T21:08:31.639Z,2.60
2018-02-10T21:10:58.189Z,2.70
2018-02-10T21:13:24.900Z,2.70
2018-02-10T21:15:51.710Z,2.50
2018-02-10T21:18:18.241Z,2.40
2018-02-10T21:20:44.718Z,2.80
2018-02-10T21:23:11.179Z,2.80
2018-02-10T21:25:38.700Z,2.90
2018-02-10T21:28:05.245Z,2.70
2018-02-10T21:30:31.815Z,2.50
2018-02-10T21:32:58.305Z,2.50
2018-02-10T21:35:24.900Z,2.30
2018-02-10T21:37:51.426Z,2.30
2018-02-10T21:40:17.927Z,2.30
2018-02-10T21:42:44.539Z,2.30
2018-02-10T21:45:10.979Z,2.20
2018-02-10T21:47:37.446Z,2.20
2018-02-10T21:50:03.975Z,2.00
2018-02-10T21:52:30.506Z,2.30
2018-02-10T21:54:56.957Z,2.20
2018-02-10T21:57:23.455Z,2.20
2018-02-10T21:59:49.912Z,2.30
2018-02-10T22:02:16.485Z,2.40
2018-02-10T22:04:44.015Z,2.40
2018-02-10T22:07:10.436Z,2.30
2018-02-10T22:09:36.818Z,2.40
2018-02-10T22:12:03.407Z,2.40
2018-02-10T22:14:29.847Z,2.30
2018-02-10T22:16:56.884Z,2.20
2018-02-10T22:19:23.819Z,2.00
2018-02-10T22:21:50.376Z,2.20
2018-02-10T22:24:16.901Z,2.10
2018-02-10T22:26:44.354Z,2.40
2018-02-10T22:29:11.098Z,2.40
2018-02-10T22:31:37.667Z,2.40
2018-02-10T22:34:04.405Z,2.50
2018-02-10T22:36:31.099Z,2.40
2018-02-10T22:38:57.546Z,2.50
2018-02-10T22:41:24.062Z,2.80
2018-02-10T22:43:50.559Z,3.30
2018-02-10T22:46:17.092Z,3.50
2018-02-10T22:48:43.595Z,3.40
2018-02-10T22:51:10.010Z,3.20
2018-02-10T22:53:36.510Z,2.90
2018-02-10T22:56:03.850Z,3.60
2018-02-10T22:58:30.408Z,3.80
2018-02-10T23:01:02.972Z,3.90
2018-02-10T23:03:29.448Z,3.90
2018-02-10T23:05:55.853Z,4.00
2018-02-10T23:08:22.240Z,3.90
2018-02-10T23:10:48.734Z,3.90
2018-02-10T23:13:15.206Z,3.90
2018-02-10T23:15:41.639Z,3.60
2018-02-10T23:18:08.086Z,2.50
2018-02-10T23:20:34.482Z,2.20
2018-02-10T23:23:01.036Z,2.10
2018-02-10T23:25:27.561Z,2.00
2018-02-10T23:27:54.021Z,2.00
2018-02-10T23:30:20.409Z,2.00
2018-02-10T23:32:46.910Z,2.00
2018-02-10T23:35:13.415Z,1.80
2018-02-10T23:37:40.018Z,1.80
2018-02-10T23:40:06.494Z,1.80
2018-02-10T23:42:33.527Z,1.80
2018-02-10T23:44:59.968Z,1.70
2018-02-10T23:47:26.464Z,1.70
2018-02-10T23:49:52.900Z,1.70
2018-02-10T23:52:19.473Z,1.70
2018-02-10T23:54:46.068Z,1.70
2018-02-10T23:57:12.531Z,1.90
2018-02-10T23:59:38.939Z,1.70
